sensor_id;sensor_type;location;lat;lon;timestamp;P1;durP1;ratioP1;P2;durP2;ratioP2
29906;SDS011;16776;50.958;10.994;2023-04-24T00:01:52;0.10;;;0.10;;
29906;SDS011;16776;50.958;10.994;2023-04-24T00:04:21;0.25;;;0.25;;
29906;SDS011;16776;50.958;10.994;2023-04-24T00:06:50;0.20;;;0.20;;
29906;SDS011;16776;50.958;10.994;2023-04-24T00:09:19;0.20;;;0.20;;
29906;SDS011;16776;50.958;10.994;2023-04-24T00:11:45;1.45;;;0.30;;
29906;SDS011;16776;50.958;10.994;2023-04-24T00:14:12;0.20;;;0.10;;
29906;SDS011;16776;50.958;10.994;2023-04-24T00:16:39;0.40;;;0.10;;
29906;SDS011;16776;50.958;10.994;2023-04-24T00:19:05;0.43;;;0.17;;
29906;SDS011;16776;50.958;10.994;2023-04-24T00:21:33;0.30;;;0.17;;
29906;SDS011;16776;50.958;10.994;2023-04-24T00:24:00;0.73;;;0.20;;
29906;SDS011;16776;50.958;10.994;2023-04-24T00:26:26;0.10;;;0.10;;
29906;SDS011;16776;50.958;10.994;2023-04-24T00:28:53;0.20;;;0.20;;
29906;SDS011;16776;50.958;10.994;2023-04-24T00:31:19;1.40;;;0.20;;
29906;SDS011;16776;50.958;10.994;2023-04-24T00:33:46;0.30;;;0.30;;
29906;SDS011;16776;50.958;10.994;2023-04-24T00:36:12;0.30;;;0.20;;
29906;SDS011;16776;50.958;10.994;2023-04-24T00:38:40;0.30;;;0.22;;
29906;SDS011;16776;50.958;10.994;2023-04-24T00:41:07;0.30;;;0.30;;
29906;SDS011;16776;50.958;10.994;2023-04-24T00:43:33;2.38;;;0.30;;
29906;SDS011;16776;50.958;10.994;2023-04-24T00:46:00;0.32;;;0.32;;
29906;SDS011;16776;50.958;10.994;2023-04-24T00:48:27;0.20;;;0.20;;
29906;SDS011;16776;50.958;10.994;2023-04-24T00:50:54;0.70;;;0.20;;
29906;SDS011;16776;50.958;10.994;2023-04-24T00:53:20;1.00;;;0.20;;
29906;SDS011;16776;50.958;10.994;2023-04-24T00:55:53;0.20;;;0.20;;
29906;SDS011;16776;50.958;10.994;2023-04-24T00:58:20;0.30;;;0.20;;
29906;SDS011;16776;50.958;10.994;2023-04-24T01:00:49;0.30;;;0.30;;
29906;SDS011;16776;50.958;10.994;2023-04-24T01:03:19;0.10;;;0.10;;
29906;SDS011;16776;50.958;10.994;2023-04-24T01:05:56;0.10;;;0.10;;
29906;SDS011;16776;50.958;10.994;2023-04-24T01:08:23;0.10;;;0.10;;
29906;SDS011;16776;50.958;10.994;2023-04-24T01:10:52;0.30;;;0.20;;
29906;SDS011;16776;50.958;10.994;2023-04-24T01:13:20;0.17;;;0.17;;
29906;SDS011;16776;50.958;10.994;2023-04-24T01:15:46;0.47;;;0.10;;
29906;SDS011;16776;50.958;10.994;2023-04-24T01:18:13;0.15;;;0.15;;
29906;SDS011;16776;50.958;10.994;2023-04-24T01:20:43;0.35;;;0.20;;
29906;SDS011;16776;50.958;10.994;2023-04-24T01:23:13;0.10;;;0.10;;
29906;SDS011;16776;50.958;10.994;2023-04-24T01:25:41;0.20;;;0.20;;
29906;SDS011;16776;50.958;10.994;2023-04-24T01:28:09;0.30;;;0.10;;
29906;SDS011;16776;50.958;10.994;2023-04-24T01:30:35;0.20;;;0.20;;
29906;SDS011;16776;50.958;10.994;2023-04-24T01:33:02;0.20;;;0.20;;
29906;SDS011;16776;50.958;10.994;2023-04-24T01:35:29;1.48;;;0.13;;
29906;SDS011;16776;50.958;10.994;2023-04-24T01:37:55;0.20;;;0.20;;
29906;SDS011;16776;50.958;10.994;2023-04-24T01:40:23;0.20;;;0.20;;
29906;SDS011;16776;50.958;10.994;2023-04-24T01:42:50;0.30;;;0.20;;
29906;SDS011;16776;50.958;10.994;2023-04-24T01:45:19;0.20;;;0.20;;
29906;SDS011;16776;50.958;10.994;2023-04-24T01:47:46;0.20;;;0.20;;
29906;SDS011;16776;50.958;10.994;2023-04-24T01:50:14;0.10;;;0.10;;
29906;SDS011;16776;50.958;10.994;2023-04-24T01:52:40;0.17;;;0.10;;
29906;SDS011;16776;50.958;10.994;2023-04-24T01:55:07;0.85;;;0.15;;
29906;SDS011;16776;50.958;10.994;2023-04-24T01:57:35;0.30;;;0.10;;
29906;SDS011;16776;50.958;10.994;2023-04-24T02:00:02;0.28;;;0.20;;
29906;SDS011;16776;50.958;10.994;2023-04-24T02:02:30;0.15;;;0.10;;
29906;SDS011;16776;50.958;10.994;2023-04-24T02:04:57;0.30;;;0.10;;
29906;SDS011;16776;50.958;10.994;2023-04-24T02:07:24;0.10;;;0.10;;
29906;SDS011;16776;50.958;10.994;2023-04-24T02:09:51;0.10;;;0.10;;
29906;SDS011;16776;50.958;10.994;2023-04-24T02:12:18;0.15;;;0.10;;
29906;SDS011;16776;50.958;10.994;2023-04-24T02:14:47;0.10;;;0.10;;
29906;SDS011;16776;50.958;10.994;2023-04-24T02:17:13;0.25;;;0.20;;
29906;SDS011;16776;50.958;10.994;2023-04-24T02:19:41;0.20;;;0.10;;
29906;SDS011;16776;50.958;10.994;2023-04-24T02:22:07;0.10;;;0.10;;
29906;SDS011;16776;50.958;10.994;2023-04-24T02:24:38;0.20;;;0.20;;
29906;SDS011;16776;50.958;10.994;2023-04-24T02:27:05;0.10;;;0.10;;
29906;SDS011;16776;50.958;10.994;2023-04-24T02:29:31;0.45;;;0.30;;
29906;SDS011;16776;50.958;10.994;2023-04-24T02:31:59;0.20;;;0.20;;
29906;SDS011;16776;50.958;10.994;2023-04-24T02:34:26;0.30;;;0.20;;
29906;SDS011;16776;50.958;10.994;2023-04-24T02:36:56;0.20;;;0.15;;
29906;SDS011;16776;50.958;10.994;2023-04-24T02:39:22;0.10;;;0.10;;
29906;SDS011;16776;50.958;10.994;2023-04-24T02:41:49;0.30;;;0.30;;
29906;SDS011;16776;50.958;10.994;2023-04-24T02:44:17;1.17;;;0.20;;
29906;SDS011;16776;50.958;10.994;2023-04-24T02:46:44;0.20;;;0.20;;
29906;SDS011;16776;50.958;10.994;2023-04-24T02:49:12;0.20;;;0.17;;
29906;SDS011;16776;50.958;10.994;2023-04-24T02:51:38;0.43;;;0.22;;
29906;SDS011;16776;50.958;10.994;2023-04-24T02:54:06;0.95;;;0.30;;
29906;SDS011;16776;50.958;10.994;2023-04-24T02:56:33;0.10;;;0.10;;
29906;SDS011;16776;50.958;10.994;2023-04-24T02:59:00;1.02;;;0.20;;
29906;SDS011;16776;50.958;10.994;2023-04-24T03:01:26;0.20;;;0.20;;
29906;SDS011;16776;50.958;10.994;2023-04-24T03:03:53;1.17;;;0.25;;
29906;SDS011;16776;50.958;10.994;2023-04-24T03:06:21;0.20;;;0.20;;
29906;SDS011;16776;50.958;10.994;2023-04-24T03:08:47;0.20;;;0.17;;
29906;SDS011;16776;50.958;10.994;2023-04-24T03:11:17;0.32;;;0.32;;
29906;SDS011;16776;50.958;10.994;2023-04-24T03:13:46;0.38;;;0.30;;
29906;SDS011;16776;50.958;10.994;2023-04-24T03:16:12;0.55;;;0.30;;
29906;SDS011;16776;50.958;10.994;2023-04-24T03:18:41;0.32;;;0.32;;
29906;SDS011;16776;50.958;10.994;2023-04-24T03:21:07;0.32;;;0.20;;
29906;SDS011;16776;50.958;10.994;2023-04-24T03:23:35;0.20;;;0.20;;
29906;SDS011;16776;50.958;10.994;2023-04-24T03:26:02;0.30;;;0.30;;
29906;SDS011;16776;50.958;10.994;2023-04-24T03:28:28;0.30;;;0.30;;
29906;SDS011;16776;50.958;10.994;2023-04-24T03:30:55;0.28;;;0.28;;
29906;SDS011;16776;50.958;10.994;2023-04-24T03:33:21;0.20;;;0.20;;
29906;SDS011;16776;50.958;10.994;2023-04-24T03:35:48;0.32;;;0.32;;
29906;SDS011;16776;50.958;10.994;2023-04-24T03:38:14;0.20;;;0.20;;
29906;SDS011;16776;50.958;10.994;2023-04-24T03:40:43;0.20;;;0.20;;
29906;SDS011;16776;50.958;10.994;2023-04-24T03:43:09;0.55;;;0.55;;
29906;SDS011;16776;50.958;10.994;2023-04-24T03:45:36;1.38;;;0.15;;
29906;SDS011;16776;50.958;10.994;2023-04-24T03:48:02;0.73;;;0.10;;
29906;SDS011;16776;50.958;10.994;2023-04-24T03:50:29;0.20;;;0.20;;
29906;SDS011;16776;50.958;10.994;2023-04-24T03:52:57;1.15;;;0.50;;
29906;SDS011;16776;50.958;10.994;2023-04-24T03:55:24;0.35;;;0.20;;
29906;SDS011;16776;50.958;10.994;2023-04-24T03:57:54;0.20;;;0.20;;
29906;SDS011;16776;50.958;10.994;2023-04-24T04:00:21;0.35;;;0.15;;
29906;SDS011;16776;50.958;10.994;2023-04-24T04:02:48;0.13;;;0.10;;
29906;SDS011;16776;50.958;10.994;2023-04-24T04:05:14;0.20;;;0.20;;
29906;SDS011;16776;50.958;10.994;2023-04-24T04:07:43;0.10;;;0.10;;
29906;SDS011;16776;50.958;10.994;2023-04-24T04:10:10;0.30;;;0.20;;
29906;SDS011;16776;50.958;10.994;2023-04-24T04:12:36;0.25;;;0.20;;
29906;SDS011;16776;50.958;10.994;2023-04-24T04:15:05;0.45;;;0.30;;
29906;SDS011;16776;50.958;10.994;2023-04-24T04:17:32;0.35;;;0.22;;
29906;SDS011;16776;50.958;10.994;2023-04-24T04:19:58;1.48;;;0.30;;
29906;SDS011;16776;50.958;10.994;2023-04-24T04:22:26;2.10;;;0.35;;
29906;SDS011;16776;50.958;10.994;2023-04-24T04:24:54;1.38;;;0.20;;
29906;SDS011;16776;50.958;10.994;2023-04-24T04:27:21;0.10;;;0.10;;
29906;SDS011;16776;50.958;10.994;2023-04-24T04:29:48;0.50;;;0.20;;
29906;SDS011;16776;50.958;10.994;2023-04-24T04:32:16;0.20;;;0.20;;
29906;SDS011;16776;50.958;10.994;2023-04-24T04:34:43;0.20;;;0.20;;
29906;SDS011;16776;50.958;10.994;2023-04-24T04:37:10;0.43;;;0.35;;
29906;SDS011;16776;50.958;10.994;2023-04-24T04:39:39;1.65;;;0.75;;
29906;SDS011;16776;50.958;10.994;2023-04-24T04:42:05;0.40;;;0.30;;
29906;SDS011;16776;50.958;10.994;2023-04-24T04:44:32;0.43;;;0.30;;
29906;SDS011;16776;50.958;10.994;2023-04-24T04:47:00;0.68;;;0.30;;
29906;SDS011;16776;50.958;10.994;2023-04-24T04:49:30;1.10;;;0.30;;
29906;SDS011;16776;50.958;10.994;2023-04-24T04:51:56;0.52;;;0.40;;
29906;SDS011;16776;50.958;10.994;2023-04-24T04:54:23;0.70;;;0.40;;
29906;SDS011;16776;50.958;10.994;2023-04-24T04:56:50;1.30;;;0.35;;
29906;SDS011;16776;50.958;10.994;2023-04-24T04:59:16;0.30;;;0.30;;
29906;SDS011;16776;50.958;10.994;2023-04-24T05:01:43;0.30;;;0.30;;
29906;SDS011;16776;50.958;10.994;2023-04-24T05:04:09;0.25;;;0.25;;
29906;SDS011;16776;50.958;10.994;2023-04-24T05:06:37;0.25;;;0.25;;
29906;SDS011;16776;50.958;10.994;2023-04-24T05:09:04;0.30;;;0.30;;
29906;SDS011;16776;50.958;10.994;2023-04-24T05:11:32;0.52;;;0.15;;
29906;SDS011;16776;50.958;10.994;2023-04-24T05:13:58;0.20;;;0.20;;
29906;SDS011;16776;50.958;10.994;2023-04-24T05:16:25;0.17;;;0.15;;
29906;SDS011;16776;50.958;10.994;2023-04-24T05:18:52;0.20;;;0.20;;
29906;SDS011;16776;50.958;10.994;2023-04-24T05:21:18;0.20;;;0.20;;
29906;SDS011;16776;50.958;10.994;2023-04-24T05:23:46;0.45;;;0.20;;
29906;SDS011;16776;50.958;10.994;2023-04-24T05:26:13;0.20;;;0.20;;
29906;SDS011;16776;50.958;10.994;2023-04-24T05:28:40;0.20;;;0.20;;
29906;SDS011;16776;50.958;10.994;2023-04-24T05:31:07;0.80;;;0.40;;
29906;SDS011;16776;50.958;10.994;2023-04-24T05:33:33;1.08;;;0.20;;
29906;SDS011;16776;50.958;10.994;2023-04-24T05:36:00;0.88;;;0.40;;
29906;SDS011;16776;50.958;10.994;2023-04-24T05:38:28;0.40;;;0.40;;
29906;SDS011;16776;50.958;10.994;2023-04-24T05:40:55;0.55;;;0.45;;
29906;SDS011;16776;50.958;10.994;2023-04-24T05:43:22;0.20;;;0.20;;
29906;SDS011;16776;50.958;10.994;2023-04-24T05:45:49;0.20;;;0.20;;
29906;SDS011;16776;50.958;10.994;2023-04-24T05:48:15;0.30;;;0.20;;
29906;SDS011;16776;50.958;10.994;2023-04-24T05:50:42;0.30;;;0.30;;
29906;SDS011;16776;50.958;10.994;2023-04-24T05:53:08;0.63;;;0.22;;
29906;SDS011;16776;50.958;10.994;2023-04-24T05:55:35;0.10;;;0.10;;
29906;SDS011;16776;50.958;10.994;2023-04-24T05:58:04;0.20;;;0.20;;
29906;SDS011;16776;50.958;10.994;2023-04-24T06:00:31;0.52;;;0.20;;
29906;SDS011;16776;50.958;10.994;2023-04-24T06:02:57;0.10;;;0.10;;
29906;SDS011;16776;50.958;10.994;2023-04-24T06:05:28;0.52;;;0.30;;
29906;SDS011;16776;50.958;10.994;2023-04-24T06:07:54;0.17;;;0.17;;
29906;SDS011;16776;50.958;10.994;2023-04-24T06:10:21;0.10;;;0.10;;
29906;SDS011;16776;50.958;10.994;2023-04-24T06:12:48;0.77;;;0.30;;
29906;SDS011;16776;50.958;10.994;2023-04-24T06:15:16;1.00;;;0.63;;
29906;SDS011;16776;50.958;10.994;2023-04-24T06:17:46;0.35;;;0.22;;
29906;SDS011;16776;50.958;10.994;2023-04-24T06:20:12;0.20;;;0.10;;
29906;SDS011;16776;50.958;10.994;2023-04-24T06:22:39;0.32;;;0.20;;
29906;SDS011;16776;50.958;10.994;2023-04-24T06:25:06;0.20;;;0.20;;
29906;SDS011;16776;50.958;10.994;2023-04-24T06:27:35;0.15;;;0.15;;
29906;SDS011;16776;50.958;10.994;2023-04-24T06:30:01;0.17;;;0.17;;
29906;SDS011;16776;50.958;10.994;2023-04-24T06:32:32;1.08;;;0.25;;
29906;SDS011;16776;50.958;10.994;2023-04-24T06:34:59;0.10;;;0.10;;
29906;SDS011;16776;50.958;10.994;2023-04-24T06:37:25;0.43;;;0.20;;
29906;SDS011;16776;50.958;10.994;2023-04-24T06:39:52;0.40;;;0.20;;
29906;SDS011;16776;50.958;10.994;2023-04-24T06:42:19;0.68;;;0.13;;
29906;SDS011;16776;50.958;10.994;2023-04-24T06:44:47;1.38;;;0.30;;
29906;SDS011;16776;50.958;10.994;2023-04-24T06:47:14;0.25;;;0.20;;
29906;SDS011;16776;50.958;10.994;2023-04-24T06:49:41;0.38;;;0.30;;
29906;SDS011;16776;50.958;10.994;2023-04-24T06:52:08;1.38;;;0.60;;
29906;SDS011;16776;50.958;10.994;2023-04-24T06:54:35;0.75;;;0.30;;
29906;SDS011;16776;50.958;10.994;2023-04-24T06:57:01;0.30;;;0.30;;
29906;SDS011;16776;50.958;10.994;2023-04-24T06:59:28;0.47;;;0.20;;
29906;SDS011;16776;50.958;10.994;2023-04-24T07:01:56;0.32;;;0.32;;
29906;SDS011;16776;50.958;10.994;2023-04-24T07:04:23;0.40;;;0.32;;
29906;SDS011;16776;50.958;10.994;2023-04-24T07:06:51;0.38;;;0.38;;
29906;SDS011;16776;50.958;10.994;2023-04-24T07:09:21;1.80;;;0.40;;
29906;SDS011;16776;50.958;10.994;2023-04-24T07:11:48;0.30;;;0.30;;
29906;SDS011;16776;50.958;10.994;2023-04-24T07:14:15;0.75;;;0.60;;
29906;SDS011;16776;50.958;10.994;2023-04-24T07:16:44;0.40;;;0.40;;
29906;SDS011;16776;50.958;10.994;2023-04-24T07:19:12;0.90;;;0.30;;
29906;SDS011;16776;50.958;10.994;2023-04-24T07:21:39;0.30;;;0.30;;
29906;SDS011;16776;50.958;10.994;2023-04-24T07:24:07;1.58;;;0.70;;
29906;SDS011;16776;50.958;10.994;2023-04-24T07:26:35;0.30;;;0.30;;
29906;SDS011;16776;50.958;10.994;2023-04-24T07:29:03;0.20;;;0.20;;
29906;SDS011;16776;50.958;10.994;2023-04-24T07:31:30;1.75;;;0.43;;
29906;SDS011;16776;50.958;10.994;2023-04-24T07:33:56;0.40;;;0.40;;
29906;SDS011;16776;50.958;10.994;2023-04-24T07:36:23;0.40;;;0.40;;
29906;SDS011;16776;50.958;10.994;2023-04-24T07:38:53;0.57;;;0.57;;
29906;SDS011;16776;50.958;10.994;2023-04-24T07:41:24;0.30;;;0.30;;
29906;SDS011;16776;50.958;10.994;2023-04-24T07:43:50;0.30;;;0.22;;
29906;SDS011;16776;50.958;10.994;2023-04-24T07:46:17;0.20;;;0.20;;
29906;SDS011;16776;50.958;10.994;2023-04-24T07:48:44;0.30;;;0.30;;
29906;SDS011;16776;50.958;10.994;2023-04-24T07:51:12;0.40;;;0.40;;
29906;SDS011;16776;50.958;10.994;2023-04-24T07:53:39;0.57;;;0.38;;
29906;SDS011;16776;50.958;10.994;2023-04-24T07:56:06;0.68;;;0.60;;
29906;SDS011;16776;50.958;10.994;2023-04-24T07:58:34;0.20;;;0.20;;
29906;SDS011;16776;50.958;10.994;2023-04-24T08:01:01;0.35;;;0.35;;
29906;SDS011;16776;50.958;10.994;2023-04-24T08:03:30;0.40;;;0.25;;
29906;SDS011;16776;50.958;10.994;2023-04-24T08:05:57;0.30;;;0.30;;
29906;SDS011;16776;50.958;10.994;2023-04-24T08:08:23;0.75;;;0.35;;
29906;SDS011;16776;50.958;10.994;2023-04-24T08:10:50;0.47;;;0.47;;
29906;SDS011;16776;50.958;10.994;2023-04-24T08:13:19;0.40;;;0.40;;
29906;SDS011;16776;50.958;10.994;2023-04-24T08:15:46;1.08;;;0.40;;
29906;SDS011;16776;50.958;10.994;2023-04-24T08:18:13;0.45;;;0.22;;
29906;SDS011;16776;50.958;10.994;2023-04-24T08:20:40;0.40;;;0.28;;
29906;SDS011;16776;50.958;10.994;2023-04-24T08:23:07;0.45;;;0.45;;
29906;SDS011;16776;50.958;10.994;2023-04-24T08:25:34;0.50;;;0.40;;
29906;SDS011;16776;50.958;10.994;2023-04-24T08:28:01;0.32;;;0.30;;
29906;SDS011;16776;50.958;10.994;2023-04-24T08:30:28;1.48;;;0.40;;
29906;SDS011;16776;50.958;10.994;2023-04-24T08:32:57;0.57;;;0.57;;
29906;SDS011;16776;50.958;10.994;2023-04-24T08:35:23;0.77;;;0.77;;
29906;SDS011;16776;50.958;10.994;2023-04-24T08:37:51;0.95;;;0.38;;
29906;SDS011;16776;50.958;10.994;2023-04-24T08:40:19;0.38;;;0.30;;
29906;SDS011;16776;50.958;10.994;2023-04-24T08:42:53;0.50;;;0.50;;
29906;SDS011;16776;50.958;10.994;2023-04-24T08:45:21;1.15;;;0.50;;
29906;SDS011;16776;50.958;10.994;2023-04-24T08:47:47;0.80;;;0.50;;
29906;SDS011;16776;50.958;10.994;2023-04-24T08:50:16;0.60;;;0.60;;
29906;SDS011;16776;50.958;10.994;2023-04-24T08:52:43;0.38;;;0.30;;
29906;SDS011;16776;50.958;10.994;2023-04-24T08:55:09;1.02;;;0.60;;
29906;SDS011;16776;50.958;10.994;2023-04-24T08:57:36;0.47;;;0.40;;
29906;SDS011;16776;50.958;10.994;2023-04-24T09:00:05;0.50;;;0.50;;
29906;SDS011;16776;50.958;10.994;2023-04-24T09:02:32;0.50;;;0.50;;
29906;SDS011;16776;50.958;10.994;2023-04-24T09:04:59;1.02;;;0.50;;
29906;SDS011;16776;50.958;10.994;2023-04-24T09:07:29;1.08;;;0.50;;
29906;SDS011;16776;50.958;10.994;2023-04-24T09:09:58;0.40;;;0.40;;
29906;SDS011;16776;50.958;10.994;2023-04-24T09:12:25;0.50;;;0.50;;
29906;SDS011;16776;50.958;10.994;2023-04-24T09:14:54;0.65;;;0.65;;
29906;SDS011;16776;50.958;10.994;2023-04-24T09:17:21;0.95;;;0.50;;
29906;SDS011;16776;50.958;10.994;2023-04-24T09:19:48;0.40;;;0.40;;
29906;SDS011;16776;50.958;10.994;2023-04-24T09:22:15;0.30;;;0.30;;
29906;SDS011;16776;50.958;10.994;2023-04-24T09:24:43;0.40;;;0.40;;
29906;SDS011;16776;50.958;10.994;2023-04-24T09:27:28;0.25;;;0.25;;
29906;SDS011;16776;50.958;10.994;2023-04-24T09:29:55;0.50;;;0.50;;
29906;SDS011;16776;50.958;10.994;2023-04-24T09:32:23;0.65;;;0.47;;
29906;SDS011;16776;50.958;10.994;2023-04-24T09:35:04;1.95;;;0.50;;
29906;SDS011;16776;50.958;10.994;2023-04-24T09:37:34;0.75;;;0.75;;
29906;SDS011;16776;50.958;10.994;2023-04-24T09:40:09;0.70;;;0.55;;
29906;SDS011;16776;50.958;10.994;2023-04-24T09:42:37;1.20;;;0.45;;
29906;SDS011;16776;50.958;10.994;2023-04-24T09:45:05;0.60;;;0.60;;
29906;SDS011;16776;50.958;10.994;2023-04-24T09:47:35;0.35;;;0.35;;
29906;SDS011;16776;50.958;10.994;2023-04-24T09:50:08;0.73;;;0.73;;
29906;SDS011;16776;50.958;10.994;2023-04-24T09:52:39;0.45;;;0.45;;
29906;SDS011;16776;50.958;10.994;2023-04-24T09:55:11;0.65;;;0.50;;
29906;SDS011;16776;50.958;10.994;2023-04-24T09:57:49;0.50;;;0.50;;
29906;SDS011;16776;50.958;10.994;2023-04-24T10:00:23;0.30;;;0.30;;
29906;SDS011;16776;50.958;10.994;2023-04-24T10:02:54;0.50;;;0.50;;
29906;SDS011;16776;50.958;10.994;2023-04-24T10:05:22;0.77;;;0.70;;
29906;SDS011;16776;50.958;10.994;2023-04-24T10:07:50;0.70;;;0.50;;
29906;SDS011;16776;50.958;10.994;2023-04-24T10:10:19;2.58;;;0.93;;
29906;SDS011;16776;50.958;10.994;2023-04-24T10:12:46;0.50;;;0.50;;
29906;SDS011;16776;50.958;10.994;2023-04-24T10:15:13;1.75;;;0.60;;
29906;SDS011;16776;50.958;10.994;2023-04-24T10:17:45;0.70;;;0.70;;
29906;SDS011;16776;50.958;10.994;2023-04-24T10:20:17;0.95;;;0.85;;
29906;SDS011;16776;50.958;10.994;2023-04-24T10:22:45;0.80;;;0.50;;
29906;SDS011;16776;50.958;10.994;2023-04-24T10:25:14;0.65;;;0.65;;
29906;SDS011;16776;50.958;10.994;2023-04-24T10:27:44;0.40;;;0.40;;
29906;SDS011;16776;50.958;10.994;2023-04-24T10:30:13;0.60;;;0.60;;
29906;SDS011;16776;50.958;10.994;2023-04-24T10:32:40;0.57;;;0.57;;
29906;SDS011;16776;50.958;10.994;2023-04-24T10:35:07;0.60;;;0.60;;
29906;SDS011;16776;50.958;10.994;2023-04-24T10:37:35;2.33;;;0.50;;
29906;SDS011;16776;50.958;10.994;2023-04-24T10:40:04;0.50;;;0.50;;
29906;SDS011;16776;50.958;10.994;2023-04-24T10:42:33;0.60;;;0.60;;
29906;SDS011;16776;50.958;10.994;2023-04-24T10:45:05;0.93;;;0.93;;
29906;SDS011;16776;50.958;10.994;2023-04-24T10:47:42;0.80;;;0.80;;
29906;SDS011;16776;50.958;10.994;2023-04-24T10:50:09;0.93;;;0.70;;
29906;SDS011;16776;50.958;10.994;2023-04-24T10:52:45;0.68;;;0.68;;
29906;SDS011;16776;50.958;10.994;2023-04-24T10:55:13;0.73;;;0.73;;
29906;SDS011;16776;50.958;10.994;2023-04-24T10:57:40;1.65;;;0.52;;
29906;SDS011;16776;50.958;10.994;2023-04-24T11:00:28;0.60;;;0.60;;
29906;SDS011;16776;50.958;10.994;2023-04-24T11:02:55;1.77;;;0.88;;
29906;SDS011;16776;50.958;10.994;2023-04-24T11:05:22;1.00;;;0.90;;
29906;SDS011;16776;50.958;10.994;2023-04-24T11:08:16;1.02;;;0.82;;
29906;SDS011;16776;50.958;10.994;2023-04-24T11:10:54;0.93;;;0.93;;
29906;SDS011;16776;50.958;10.994;2023-04-24T11:13:22;1.17;;;1.00;;
29906;SDS011;16776;50.958;10.994;2023-04-24T11:18:49;0.30;;;0.30;;
29906;SDS011;16776;50.958;10.994;2023-04-24T11:21:19;0.60;;;0.60;;
29906;SDS011;16776;50.958;10.994;2023-04-24T11:23:46;0.43;;;0.43;;
29906;SDS011;16776;50.958;10.994;2023-04-24T11:26:13;1.85;;;0.80;;
29906;SDS011;16776;50.958;10.994;2023-04-24T11:28:47;0.63;;;0.63;;
29906;SDS011;16776;50.958;10.994;2023-04-24T11:34:11;0.70;;;0.63;;
29906;SDS011;16776;50.958;10.994;2023-04-24T11:36:39;0.90;;;0.80;;
29906;SDS011;16776;50.958;10.994;2023-04-24T11:39:10;1.50;;;1.05;;
29906;SDS011;16776;50.958;10.994;2023-04-24T11:41:36;0.60;;;0.60;;
29906;SDS011;16776;50.958;10.994;2023-04-24T11:44:05;0.93;;;0.68;;
29906;SDS011;16776;50.958;10.994;2023-04-24T11:46:33;0.75;;;0.75;;
29906;SDS011;16776;50.958;10.994;2023-04-24T11:49:01;0.80;;;0.80;;
29906;SDS011;16776;50.958;10.994;2023-04-24T11:51:28;0.70;;;0.70;;
29906;SDS011;16776;50.958;10.994;2023-04-24T11:53:56;0.73;;;0.60;;
29906;SDS011;16776;50.958;10.994;2023-04-24T11:56:23;0.80;;;0.80;;
29906;SDS011;16776;50.958;10.994;2023-04-24T11:58:51;0.60;;;0.60;;
29906;SDS011;16776;50.958;10.994;2023-04-24T12:01:20;0.60;;;0.60;;
29906;SDS011;16776;50.958;10.994;2023-04-24T12:03:48;0.75;;;0.60;;
29906;SDS011;16776;50.958;10.994;2023-04-24T12:06:17;0.60;;;0.60;;
29906;SDS011;16776;50.958;10.994;2023-04-24T12:08:47;0.68;;;0.68;;
29906;SDS011;16776;50.958;10.994;2023-04-24T12:11:15;0.68;;;0.68;;
29906;SDS011;16776;50.958;10.994;2023-04-24T12:13:44;0.80;;;0.80;;
29906;SDS011;16776;50.958;10.994;2023-04-24T12:16:11;0.80;;;0.80;;
29906;SDS011;16776;50.958;10.994;2023-04-24T12:18:41;0.40;;;0.40;;
29906;SDS011;16776;50.958;10.994;2023-04-24T12:21:18;2.25;;;0.57;;
29906;SDS011;16776;50.958;10.994;2023-04-24T12:23:46;1.15;;;0.43;;
29906;SDS011;16776;50.958;10.994;2023-04-24T12:26:15;0.45;;;0.45;;
29906;SDS011;16776;50.958;10.994;2023-04-24T12:28:43;0.52;;;0.52;;
29906;SDS011;16776;50.958;10.994;2023-04-24T12:31:12;0.60;;;0.60;;
29906;SDS011;16776;50.958;10.994;2023-04-24T12:33:38;0.50;;;0.50;;
29906;SDS011;16776;50.958;10.994;2023-04-24T12:36:05;1.00;;;0.40;;
29906;SDS011;16776;50.958;10.994;2023-04-24T12:38:33;0.32;;;0.32;;
29906;SDS011;16776;50.958;10.994;2023-04-24T12:41:06;0.82;;;0.50;;
29906;SDS011;16776;50.958;10.994;2023-04-24T12:43:34;2.80;;;0.50;;
29906;SDS011;16776;50.958;10.994;2023-04-24T12:46:01;0.60;;;0.50;;
29906;SDS011;16776;50.958;10.994;2023-04-24T12:48:28;0.45;;;0.43;;
29906;SDS011;16776;50.958;10.994;2023-04-24T12:50:56;0.95;;;0.60;;
29906;SDS011;16776;50.958;10.994;2023-04-24T12:53:26;1.33;;;0.40;;
29906;SDS011;16776;50.958;10.994;2023-04-24T12:55:55;0.50;;;0.50;;
29906;SDS011;16776;50.958;10.994;2023-04-24T12:58:22;0.28;;;0.20;;
29906;SDS011;16776;50.958;10.994;2023-04-24T13:00:48;0.40;;;0.40;;
29906;SDS011;16776;50.958;10.994;2023-04-24T13:03:15;0.30;;;0.30;;
29906;SDS011;16776;50.958;10.994;2023-04-24T13:05:42;0.30;;;0.30;;
29906;SDS011;16776;50.958;10.994;2023-04-24T13:08:09;0.63;;;0.60;;
29906;SDS011;16776;50.958;10.994;2023-04-24T13:10:37;0.65;;;0.43;;
29906;SDS011;16776;50.958;10.994;2023-04-24T13:13:06;0.47;;;0.32;;
29906;SDS011;16776;50.958;10.994;2023-04-24T13:15:33;0.30;;;0.30;;
29906;SDS011;16776;50.958;10.994;2023-04-24T13:18:00;0.35;;;0.35;;
29906;SDS011;16776;50.958;10.994;2023-04-24T13:20:27;3.00;;;0.73;;
29906;SDS011;16776;50.958;10.994;2023-04-24T13:22:53;0.82;;;0.40;;
29906;SDS011;16776;50.958;10.994;2023-04-24T13:25:20;0.65;;;0.65;;
29906;SDS011;16776;50.958;10.994;2023-04-24T13:27:48;1.10;;;0.35;;
29906;SDS011;16776;50.958;10.994;2023-04-24T13:30:17;0.30;;;0.30;;
29906;SDS011;16776;50.958;10.994;2023-04-24T13:32:43;0.28;;;0.28;;
29906;SDS011;16776;50.958;10.994;2023-04-24T13:35:10;0.30;;;0.30;;
29906;SDS011;16776;50.958;10.994;2023-04-24T13:37:37;0.30;;;0.30;;
29906;SDS011;16776;50.958;10.994;2023-04-24T13:40:06;0.20;;;0.20;;
29906;SDS011;16776;50.958;10.994;2023-04-24T13:42:36;0.63;;;0.20;;
29906;SDS011;16776;50.958;10.994;2023-04-24T13:45:03;0.35;;;0.20;;
29906;SDS011;16776;50.958;10.994;2023-04-24T13:47:31;0.20;;;0.20;;
29906;SDS011;16776;50.958;10.994;2023-04-24T13:49:58;0.50;;;0.13;;
29906;SDS011;16776;50.958;10.994;2023-04-24T13:52:25;0.35;;;0.35;;
29906;SDS011;16776;50.958;10.994;2023-04-24T13:54:53;0.20;;;0.20;;
29906;SDS011;16776;50.958;10.994;2023-04-24T13:57:20;0.10;;;0.10;;
29906;SDS011;16776;50.958;10.994;2023-04-24T13:59:47;0.13;;;0.13;;
29906;SDS011;16776;50.958;10.994;2023-04-24T14:02:14;0.15;;;0.15;;
29906;SDS011;16776;50.958;10.994;2023-04-24T14:04:41;0.10;;;0.10;;
29906;SDS011;16776;50.958;10.994;2023-04-24T14:07:08;0.70;;;0.57;;
29906;SDS011;16776;50.958;10.994;2023-04-24T14:09:35;0.13;;;0.13;;
29906;SDS011;16776;50.958;10.994;2023-04-24T14:12:01;0.10;;;0.10;;
29906;SDS011;16776;50.958;10.994;2023-04-24T14:14:28;0.13;;;0.13;;
29906;SDS011;16776;50.958;10.994;2023-04-24T14:16:55;0.15;;;0.13;;
29906;SDS011;16776;50.958;10.994;2023-04-24T14:19:22;0.17;;;0.17;;
29906;SDS011;16776;50.958;10.994;2023-04-24T14:21:50;0.10;;;0.10;;
29906;SDS011;16776;50.958;10.994;2023-04-24T14:24:18;0.10;;;0.10;;
29906;SDS011;16776;50.958;10.994;2023-04-24T14:26:45;1.05;;;0.10;;
29906;SDS011;16776;50.958;10.994;2023-04-24T14:29:11;0.08;;;0.08;;
29906;SDS011;16776;50.958;10.994;2023-04-24T14:31:38;0.10;;;0.10;;
29906;SDS011;16776;50.958;10.994;2023-04-24T14:34:04;0.10;;;0.10;;
29906;SDS011;16776;50.958;10.994;2023-04-24T14:36:31;0.20;;;0.10;;
29906;SDS011;16776;50.958;10.994;2023-04-24T14:38:59;0.10;;;0.10;;
29906;SDS011;16776;50.958;10.994;2023-04-24T14:41:28;0.10;;;0.10;;
29906;SDS011;16776;50.958;10.994;2023-04-24T14:43:55;0.10;;;0.10;;